createdAt,value
2018-08-08T00:00:32.569Z,25.51
2018-08-08T00:03:02.161Z,25.48
2018-08-08T00:05:31.925Z,25.44
2018-08-08T00:08:01.534Z,25.38
2018-08-08T00:10:31.202Z,25.35
2018-08-08T00:13:00.800Z,25.34
2018-08-08T00:15:30.496Z,25.33
2018-08-08T00:18:00.145Z,25.30
2018-08-08T00:20:29.752Z,25.28
2018-08-08T00:22:59.321Z,25.27
2018-08-08T00:25:28.940Z,25.24
2018-08-08T00:27:58.540Z,25.18
2018-08-08T00:30:28.092Z,25.14
2018-08-08T00:32:57.654Z,25.09
2018-08-08T00:35:27.237Z,25.06
2018-08-08T00:37:56.806Z,25.02
2018-08-08T00:40:26.372Z,24.98
2018-08-08T00:42:56.412Z,24.94
2018-08-08T00:45:26.021Z,24.88
2018-08-08T00:47:55.584Z,24.83
2018-08-08T00:50:25.537Z,24.78
2018-08-08T00:52:55.084Z,24.72
2018-08-08T00:55:24.712Z,24.68
2018-08-08T00:57:54.280Z,24.64
2018-08-08T01:00:23.949Z,24.59
2018-08-08T01:02:53.543Z,24.55
2018-08-08T01:05:23.489Z,24.50
2018-08-08T01:07:53.096Z,24.44
2018-08-08T01:10:22.718Z,24.39
2018-08-08T01:12:52.382Z,24.33
2018-08-08T01:15:21.978Z,24.28
2018-08-08T01:17:51.613Z,24.23
2018-08-08T01:20:21.247Z,24.21
2018-08-08T01:22:51.034Z,24.19
2018-08-08T01:25:20.808Z,24.17
2018-08-08T01:27:50.864Z,24.14
2018-08-08T01:30:21.001Z,24.11
2018-08-08T01:32:50.577Z,24.10
2018-08-08T01:35:20.321Z,24.07
2018-08-08T01:37:49.942Z,24.04
2018-08-08T01:40:19.865Z,24.03
2018-08-08T01:42:49.463Z,24.02
2018-08-08T01:45:19.195Z,23.99
2018-08-08T01:47:48.780Z,23.97
2018-08-08T01:50:18.456Z,23.95
2018-08-08T01:52:48.101Z,23.93
2018-08-08T01:55:24.344Z,23.93
2018-08-08T01:57:54.089Z,23.92
2018-08-08T02:00:23.673Z,23.90
2018-08-08T02:02:53.285Z,23.89
2018-08-08T02:05:22.889Z,23.87
2018-08-08T02:07:52.602Z,23.86
2018-08-08T02:10:23.704Z,23.84
2018-08-08T02:12:53.469Z,23.83
2018-08-08T02:15:23.069Z,23.80
2018-08-08T02:17:53.076Z,23.78
2018-08-08T02:20:22.721Z,23.76
2018-08-08T02:22:52.326Z,23.75
2018-08-08T02:25:22.017Z,23.73
2018-08-08T02:27:51.642Z,23.70
2018-08-08T02:30:23.175Z,23.69
2018-08-08T02:32:53.585Z,23.66
2018-08-08T02:35:23.351Z,23.63
2018-08-08T02:37:53.146Z,23.61
2018-08-08T02:40:22.797Z,23.60
2018-08-08T02:42:52.400Z,23.59
2018-08-08T02:45:22.008Z,23.58
2018-08-08T02:47:51.594Z,23.55
2018-08-08T02:50:22.053Z,23.53
2018-08-08T02:52:51.897Z,23.52
2018-08-08T02:55:21.525Z,23.50
2018-08-08T02:57:51.108Z,23.48
2018-08-08T03:00:21.535Z,23.47
2018-08-08T03:02:51.142Z,23.43
2018-08-08T03:05:20.787Z,23.41
2018-08-08T03:07:50.442Z,23.38
2018-08-08T03:10:20.116Z,23.36
2018-08-08T03:12:49.753Z,23.34
2018-08-08T03:15:20.705Z,23.32
2018-08-08T03:17:50.297Z,23.32
2018-08-08T03:20:19.921Z,23.31
2018-08-08T03:22:49.502Z,23.30
2018-08-08T03:25:19.218Z,23.27
2018-08-08T03:27:48.852Z,23.27
2018-08-08T03:30:21.371Z,23.24
2018-08-08T03:32:51.439Z,23.20
2018-08-08T03:35:21.609Z,23.19
2018-08-08T03:37:51.386Z,23.16
2018-08-08T03:40:21.008Z,23.16
2018-08-08T03:42:50.670Z,23.14
2018-08-08T03:45:20.280Z,23.12
2018-08-08T03:47:49.865Z,23.09
2018-08-08T03:50:19.483Z,23.08
2018-08-08T03:52:49.119Z,23.08
2018-08-08T03:55:18.760Z,23.06
2018-08-08T03:57:48.459Z,23.07
2018-08-08T04:00:21.028Z,23.08
2018-08-08T04:02:51.177Z,23.07
2018-08-08T04:05:20.842Z,23.10
2018-08-08T04:07:50.434Z,23.09
2018-08-08T04:10:20.417Z,23.11
2018-08-08T04:12:50.060Z,23.11
2018-08-08T04:15:20.618Z,23.13
2018-08-08T04:17:50.260Z,23.15
2018-08-08T04:20:19.960Z,23.19
2018-08-08T04:22:49.933Z,23.24
2018-08-08T04:25:19.551Z,23.29
2018-08-08T04:27:49.136Z,23.35
2018-08-08T04:30:20.827Z,23.41
2018-08-08T04:32:50.475Z,23.52
2018-08-08T04:35:20.148Z,23.80
2018-08-08T04:37:49.769Z,24.07
2018-08-08T04:40:20.750Z,24.42
2018-08-08T04:42:51.061Z,24.75
2018-08-08T04:45:20.696Z,24.90
2018-08-08T04:47:50.343Z,25.22
2018-08-08T04:50:20.159Z,25.19
2018-08-08T04:52:49.833Z,25.16
2018-08-08T04:55:19.525Z,25.81
2018-08-08T04:57:49.213Z,26.55
2018-08-08T05:00:19.231Z,26.68
2018-08-08T05:02:48.810Z,26.25
2018-08-08T05:05:18.681Z,25.88
2018-08-08T05:07:48.389Z,25.77
2018-08-08T05:10:17.937Z,26.30
2018-08-08T05:12:47.736Z,26.97
2018-08-08T05:15:18.657Z,27.63
2018-08-08T05:17:49.279Z,28.32
2018-08-08T05:20:19.066Z,29.06
2018-08-08T05:22:49.387Z,29.45
2018-08-08T05:25:19.112Z,29.08
2018-08-08T05:27:48.810Z,28.78
2018-08-08T05:30:20.442Z,29.27
2018-08-08T05:32:50.407Z,29.34
2018-08-08T05:35:20.902Z,29.67
2018-08-08T05:37:50.977Z,30.03
2018-08-08T05:40:23.534Z,30.46
2018-08-08T05:42:54.565Z,30.78
2018-08-08T05:45:25.457Z,31.16
2018-08-08T05:47:56.534Z,31.71
2018-08-08T05:50:26.172Z,31.95
2018-08-08T05:52:55.797Z,31.99
2018-08-08T05:55:25.805Z,32.39
2018-08-08T05:57:55.459Z,32.67
2018-08-08T06:00:28.703Z,32.97
2018-08-08T06:02:58.581Z,33.49
2018-08-08T06:05:28.334Z,34.19
2018-08-08T06:07:57.985Z,34.92
2018-08-08T06:10:27.649Z,35.60
2018-08-08T06:12:57.334Z,36.18
2018-08-08T06:15:27.081Z,36.45
2018-08-08T06:17:56.713Z,36.73
2018-08-08T06:20:26.384Z,37.11
2018-08-08T06:22:55.997Z,37.61
2018-08-08T06:25:25.669Z,37.87
2018-08-08T06:27:55.329Z,38.24
2018-08-08T06:30:27.224Z,38.01
2018-08-08T06:32:57.842Z,38.17
2018-08-08T06:35:28.847Z,38.73
2018-08-08T06:37:58.957Z,39.04
2018-08-08T06:40:28.595Z,38.49
2018-08-08T06:42:58.288Z,38.57
2018-08-08T06:45:28.229Z,38.68
2018-08-08T06:47:57.870Z,38.36
2018-08-08T06:50:27.841Z,38.01
2018-08-08T06:52:57.493Z,38.04
2018-08-08T06:55:27.145Z,38.24
2018-08-08T06:57:56.797Z,38.75
2018-08-08T07:00:29.015Z,39.04
2018-08-08T07:02:59.040Z,39.26
2018-08-08T07:05:28.634Z,39.77
2018-08-08T07:07:58.609Z,40.00
2018-08-08T07:10:28.319Z,40.15
2018-08-08T07:12:57.936Z,40.45
2018-08-08T07:15:27.524Z,40.65
2018-08-08T07:17:57.557Z,40.93
2018-08-08T07:20:27.192Z,40.99
2018-08-08T07:22:56.944Z,41.49
2018-08-08T07:25:26.947Z,42.10
2018-08-08T07:27:56.542Z,42.62
2018-08-08T07:30:26.205Z,42.84
2018-08-08T07:32:55.820Z,42.80
2018-08-08T07:35:25.414Z,42.60
2018-08-08T07:37:55.129Z,42.51
2018-08-08T07:40:25.108Z,42.56
2018-08-08T07:42:54.765Z,42.59
2018-08-08T07:45:26.925Z,42.87
2018-08-08T07:47:56.646Z,43.29
2018-08-08T07:50:26.441Z,43.49
2018-08-08T07:52:56.157Z,43.74
2018-08-08T07:55:25.841Z,43.76
2018-08-08T07:57:55.578Z,44.09
2018-08-08T08:00:29.605Z,44.48
2018-08-08T08:03:00.557Z,44.63
2018-08-08T08:05:30.241Z,44.79
2018-08-08T08:07:59.977Z,44.73
2018-08-08T08:10:29.697Z,44.64
2018-08-08T08:12:59.477Z,44.62
2018-08-08T08:15:29.166Z,45.02
2018-08-08T08:17:58.890Z,45.49
2018-08-08T08:20:28.868Z,45.75
2018-08-08T08:22:58.510Z,46.04
2018-08-08T08:25:28.225Z,46.10
2018-08-08T08:27:57.872Z,46.16
2018-08-08T08:30:27.549Z,46.28
2018-08-08T08:32:57.349Z,46.46
2018-08-08T08:35:27.329Z,46.56
2018-08-08T08:37:57.087Z,46.78
2018-08-08T08:40:26.697Z,47.18
2018-08-08T08:42:56.554Z,47.52
2018-08-08T08:45:26.298Z,47.81
2018-08-08T08:47:56.017Z,47.60
2018-08-08T08:50:25.872Z,46.77
2018-08-08T08:52:55.461Z,46.56
2018-08-08T08:55:25.257Z,46.85
2018-08-08T08:57:54.957Z,47.36
2018-08-08T09:00:24.646Z,47.88
2018-08-08T09:02:54.389Z,48.10
2018-08-08T09:05:24.107Z,48.24
2018-08-08T09:07:53.770Z,48.25
2018-08-08T09:10:23.544Z,47.99
2018-08-08T09:12:53.230Z,47.61
2018-08-08T09:15:23.106Z,47.50
2018-08-08T09:17:52.774Z,47.70
2018-08-08T09:20:22.482Z,47.74
2018-08-08T09:22:52.202Z,47.92
2018-08-08T09:25:21.946Z,48.09
2018-08-08T09:27:51.593Z,47.43
2018-08-08T09:30:21.361Z,47.19
2018-08-08T09:32:50.999Z,46.99
2018-08-08T09:35:20.630Z,46.46
2018-08-08T09:37:50.295Z,45.86
2018-08-08T09:40:19.980Z,45.82
2018-08-08T09:42:49.671Z,45.59
2018-08-08T09:45:19.378Z,45.57
2018-08-08T09:47:49.137Z,45.89
2018-08-08T09:50:18.941Z,46.16
2018-08-08T09:52:48.614Z,46.27
2018-08-08T09:55:18.281Z,46.17
2018-08-08T09:57:47.905Z,45.89
2018-08-08T10:00:22.554Z,46.14
2018-08-08T10:03:57.374Z,45.90
2018-08-08T10:06:26.978Z,46.18
2018-08-08T10:08:56.634Z,46.43
2018-08-08T10:11:26.237Z,46.32
2018-08-08T10:13:55.867Z,46.27
2018-08-08T10:16:25.613Z,46.55
2018-08-08T10:18:55.337Z,46.49
2018-08-08T10:21:24.971Z,46.76
2018-08-08T10:23:54.630Z,46.95
2018-08-08T10:26:24.613Z,46.95
2018-08-08T10:28:54.256Z,46.51
2018-08-08T10:31:23.891Z,46.22
2018-08-08T10:33:54.011Z,46.16
2018-08-08T10:36:23.762Z,46.47
2018-08-08T10:38:53.456Z,46.70
2018-08-08T10:41:23.137Z,46.90
2018-08-08T10:43:52.757Z,46.56
2018-08-08T10:46:22.441Z,45.47
2018-08-08T10:48:52.400Z,44.47
2018-08-08T10:51:22.057Z,43.81
2018-08-08T10:53:51.802Z,43.69
2018-08-08T10:56:21.544Z,43.76
2018-08-08T10:58:51.394Z,43.90
2018-08-08T11:01:21.049Z,43.78
2018-08-08T11:03:50.774Z,43.55
2018-08-08T11:06:20.461Z,43.37
2018-08-08T11:08:50.145Z,43.19
2018-08-08T11:11:19.817Z,42.62
2018-08-08T11:13:49.478Z,42.30
2018-08-08T11:16:19.176Z,41.90
2018-08-08T11:18:48.938Z,41.36
2018-08-08T11:21:18.576Z,40.94
2018-08-08T11:23:48.218Z,40.83
2018-08-08T11:26:17.903Z,40.71
2018-08-08T11:28:47.543Z,40.39
2018-08-08T11:31:17.232Z,40.17
2018-08-08T11:33:47.174Z,39.95
2018-08-08T11:36:16.791Z,39.71
2018-08-08T11:38:46.526Z,39.39
2018-08-08T11:41:16.122Z,39.12
2018-08-08T11:43:45.786Z,38.92
2018-08-08T11:46:15.417Z,38.63
2018-08-08T11:48:45.018Z,38.45
2018-08-08T11:51:15.034Z,38.35
2018-08-08T11:53:44.805Z,38.13
2018-08-08T11:56:14.545Z,37.94
2018-08-08T11:58:44.197Z,37.84
2018-08-08T12:01:13.862Z,37.77
2018-08-08T12:03:43.455Z,37.63
2018-08-08T12:06:13.163Z,37.55
2018-08-08T12:08:43.318Z,37.46
2018-08-08T12:11:12.929Z,37.47
2018-08-08T12:13:42.565Z,37.48
2018-08-08T12:16:12.245Z,37.48
2018-08-08T12:18:41.920Z,37.32
2018-08-08T12:21:11.623Z,37.15
2018-08-08T12:23:41.462Z,37.03
2018-08-08T12:26:11.085Z,36.94
2018-08-08T12:28:40.827Z,36.92
2018-08-08T12:31:10.506Z,36.93
2018-08-08T12:33:40.162Z,36.92
2018-08-08T12:36:11.032Z,36.88
2018-08-08T12:38:40.610Z,36.86
2018-08-08T12:41:10.252Z,36.81
2018-08-08T12:43:39.905Z,36.79
2018-08-08T12:46:09.583Z,36.82
2018-08-08T12:48:39.193Z,36.83
2018-08-08T12:51:09.445Z,36.81
2018-08-08T12:53:39.037Z,36.80
2018-08-08T12:56:08.706Z,36.87
2018-08-08T12:58:44.884Z,36.96
2018-08-08T13:01:14.516Z,37.01
2018-08-08T13:03:44.210Z,37.01
2018-08-08T13:06:13.844Z,37.03
2018-08-08T13:08:43.483Z,37.08
2018-08-08T13:11:13.115Z,37.17
2018-08-08T13:13:42.816Z,37.25
2018-08-08T13:16:12.461Z,37.19
2018-08-08T13:18:42.072Z,37.14
2018-08-08T13:21:11.725Z,37.03
2018-08-08T13:23:41.450Z,36.99
2018-08-08T13:26:11.448Z,37.05
2018-08-08T13:28:41.270Z,37.14
2018-08-08T13:31:12.554Z,37.28
2018-08-08T13:33:42.547Z,37.43
2018-08-08T13:36:12.119Z,37.52
2018-08-08T13:38:41.726Z,37.59
2018-08-08T13:41:11.440Z,37.57
2018-08-08T13:43:41.130Z,37.53
2018-08-08T13:46:10.813Z,37.47
2018-08-08T13:48:40.517Z,37.41
2018-08-08T13:51:10.264Z,37.34
2018-08-08T13:53:40.067Z,37.27
2018-08-08T13:56:09.735Z,37.23
2018-08-08T13:58:39.482Z,37.24
2018-08-08T14:01:09.176Z,37.25
2018-08-08T14:03:38.940Z,37.24
2018-08-08T14:06:08.482Z,37.21
2018-08-08T14:08:38.118Z,37.18
2018-08-08T14:11:07.799Z,37.20
2018-08-08T14:13:37.435Z,37.25
2018-08-08T14:16:07.347Z,37.32
2018-08-08T14:18:37.306Z,37.35
2018-08-08T14:21:06.944Z,37.37
2018-08-08T14:23:36.579Z,37.47
2018-08-08T14:26:06.709Z,37.55
2018-08-08T14:28:36.323Z,37.63
2018-08-08T14:31:05.934Z,37.66
2018-08-08T14:33:35.632Z,37.73
2018-08-08T14:36:05.302Z,37.79
2018-08-08T14:38:34.965Z,37.89
2018-08-08T14:41:04.755Z,38.00
2018-08-08T14:43:34.340Z,38.07
2018-08-08T14:46:03.968Z,38.15
2018-08-08T14:48:33.678Z,38.14
2018-08-08T14:51:03.916Z,38.08
2018-08-08T14:53:34.330Z,38.05
2018-08-08T14:56:04.964Z,38.03
2018-08-08T14:58:34.596Z,38.02
2018-08-08T15:01:04.282Z,37.96
2018-08-08T15:03:34.063Z,37.88
2018-08-08T15:06:03.855Z,37.78
2018-08-08T15:08:33.816Z,37.61
2018-08-08T15:11:03.443Z,37.39
2018-08-08T15:13:33.164Z,37.16
2018-08-08T15:16:02.803Z,36.94
2018-08-08T15:18:32.454Z,36.78
2018-08-08T15:21:02.125Z,36.60
2018-08-08T15:23:31.894Z,36.45
2018-08-08T15:26:01.588Z,36.32
2018-08-08T15:28:31.309Z,36.19
2018-08-08T15:31:01.019Z,36.03
2018-08-08T15:33:30.719Z,35.81
2018-08-08T15:36:00.514Z,35.56
2018-08-08T15:38:30.251Z,35.29
2018-08-08T15:40:59.933Z,35.03
2018-08-08T15:43:29.702Z,34.74
2018-08-08T15:45:59.378Z,34.53
2018-08-08T15:48:29.080Z,34.34
2018-08-08T15:50:58.772Z,34.11
2018-08-08T15:53:29.638Z,33.93
2018-08-08T15:55:59.318Z,33.76
2018-08-08T15:58:28.942Z,33.67
2018-08-08T16:00:58.942Z,33.54
2018-08-08T16:03:28.653Z,33.45
2018-08-08T16:05:58.273Z,33.34
2018-08-08T16:08:27.953Z,33.27
2018-08-08T16:10:57.605Z,33.23
2018-08-08T16:13:27.401Z,33.20
2018-08-08T16:15:57.109Z,33.13
2018-08-08T16:18:26.882Z,33.05
2018-08-08T16:20:57.016Z,32.96
2018-08-08T16:23:26.658Z,32.89
2018-08-08T16:25:56.385Z,32.83
2018-08-08T16:28:26.042Z,32.75
2018-08-08T16:30:55.789Z,32.71
2018-08-08T16:33:25.488Z,32.69
2018-08-08T16:35:55.223Z,32.69
2018-08-08T16:38:25.417Z,32.71
2018-08-08T16:40:55.082Z,32.72
2018-08-08T16:43:24.763Z,32.72
2018-08-08T16:45:54.550Z,32.70
2018-08-08T16:48:24.167Z,32.69
2018-08-08T16:50:53.786Z,32.69
2018-08-08T16:53:23.462Z,32.68
2018-08-08T16:55:53.078Z,32.69
2018-08-08T16:58:22.709Z,32.74
2018-08-08T17:00:52.494Z,32.79
2018-08-08T17:03:22.124Z,32.80
2018-08-08T17:05:51.715Z,32.79
2018-08-08T17:08:21.342Z,32.78
2018-08-08T17:10:50.960Z,32.76
2018-08-08T17:13:20.593Z,32.72
2018-08-08T17:15:50.257Z,32.66
2018-08-08T17:18:19.885Z,32.62
2018-08-08T17:20:49.529Z,32.56
2018-08-08T17:23:19.193Z,32.55
2018-08-08T17:25:48.921Z,32.53
2018-08-08T17:28:18.733Z,32.50
2018-08-08T17:30:48.557Z,32.44
2018-08-08T17:33:18.227Z,32.41
2018-08-08T17:35:47.861Z,32.35
2018-08-08T17:38:17.575Z,32.31
2018-08-08T17:40:47.301Z,32.24
2018-08-08T17:43:17.266Z,32.14
2018-08-08T17:45:46.789Z,32.06
2018-08-08T17:48:16.426Z,31.98
2018-08-08T17:50:46.126Z,31.87
2018-08-08T17:53:16.110Z,31.76
2018-08-08T17:55:45.778Z,31.69
2018-08-08T17:58:15.460Z,31.59
2018-08-08T18:00:45.248Z,31.49
2018-08-08T18:03:14.864Z,31.41
2018-08-08T18:05:44.552Z,31.32
2018-08-08T18:08:20.126Z,31.24
2018-08-08T18:10:51.082Z,31.12
2018-08-08T18:13:20.785Z,31.03
2018-08-08T18:15:50.863Z,30.94
2018-08-08T18:18:20.542Z,30.85
2018-08-08T18:20:50.228Z,30.81
2018-08-08T18:23:20.212Z,30.81
2018-08-08T18:25:49.800Z,30.82
2018-08-08T18:28:19.471Z,30.82
2018-08-08T18:30:49.136Z,30.81
2018-08-08T18:33:18.721Z,30.81
2018-08-08T18:35:48.387Z,30.80
2018-08-08T18:38:18.267Z,30.79
2018-08-08T18:40:48.174Z,30.78
2018-08-08T18:43:17.813Z,30.78
2018-08-08T18:45:47.489Z,30.76
2018-08-08T18:48:17.117Z,30.71
2018-08-08T18:50:46.852Z,30.62
2018-08-08T18:53:16.617Z,30.57
2018-08-08T18:55:46.319Z,30.51
2018-08-08T18:58:15.978Z,30.46
2018-08-08T19:00:45.761Z,30.43
2018-08-08T19:03:15.385Z,30.40
2018-08-08T19:05:45.096Z,30.35
2018-08-08T19:08:15.081Z,30.30
2018-08-08T19:10:44.736Z,30.26
2018-08-08T19:13:14.467Z,30.22
2018-08-08T19:15:44.142Z,30.20
2018-08-08T19:18:13.987Z,30.18
2018-08-08T19:20:43.631Z,30.11
2018-08-08T19:23:13.302Z,30.06
2018-08-08T19:25:43.104Z,29.91
2018-08-08T19:28:12.798Z,29.67
2018-08-08T19:30:42.801Z,29.45
2018-08-08T19:33:12.510Z,29.29
2018-08-08T19:35:42.800Z,29.07
2018-08-08T19:38:12.513Z,28.78
2018-08-08T19:40:42.122Z,28.46
2018-08-08T19:43:11.856Z,28.20
2018-08-08T19:45:41.518Z,28.02
2018-08-08T19:48:11.121Z,27.88
2018-08-08T19:50:57.320Z,27.76
2018-08-08T19:53:27.891Z,27.65
2018-08-08T19:55:57.507Z,27.57
2018-08-08T19:58:27.142Z,27.49
2018-08-08T20:00:56.807Z,27.40
2018-08-08T20:03:26.388Z,27.34
2018-08-08T20:05:56.335Z,27.28
2018-08-08T20:08:26.756Z,27.24
2018-08-08T20:10:57.330Z,27.19
2018-08-08T20:13:27.157Z,27.14
2018-08-08T20:15:58.295Z,27.09
2018-08-08T20:18:27.937Z,27.08
2018-08-08T20:20:58.095Z,27.08
2018-08-08T20:23:27.668Z,27.09
2018-08-08T20:25:57.307Z,27.08
2018-08-08T20:28:26.890Z,27.09
2018-08-08T20:30:56.838Z,27.13
2018-08-08T20:33:26.474Z,27.14
2018-08-08T20:35:56.104Z,27.14
2018-08-08T20:38:25.771Z,27.10
2018-08-08T20:40:55.425Z,27.04
2018-08-08T20:43:25.027Z,26.97
2018-08-08T20:45:54.911Z,26.93
2018-08-08T20:48:24.558Z,26.94
2018-08-08T20:50:54.206Z,26.94
2018-08-08T20:53:23.849Z,26.94
2018-08-08T20:55:53.445Z,26.93
2018-08-08T20:58:23.051Z,26.90
2018-08-08T21:00:52.667Z,26.87
2018-08-08T21:03:22.259Z,26.83
2018-08-08T21:05:51.897Z,26.78
2018-08-08T21:08:21.533Z,26.74
2018-08-08T21:10:51.159Z,26.73
2018-08-08T21:13:20.762Z,26.70
2018-08-08T21:15:50.392Z,26.68
2018-08-08T21:18:20.268Z,26.67
2018-08-08T21:20:49.948Z,26.65
2018-08-08T21:23:19.537Z,26.66
2018-08-08T21:25:49.145Z,26.67
2018-08-08T21:28:18.793Z,26.67
2018-08-08T21:30:48.437Z,26.66
2018-08-08T21:33:18.057Z,26.66
2018-08-08T21:35:47.818Z,26.69
2018-08-08T21:38:17.507Z,26.74
2018-08-08T21:40:47.085Z,26.78
2018-08-08T21:43:16.778Z,26.83
2018-08-08T21:45:46.461Z,26.86
2018-08-08T21:48:16.067Z,26.88
2018-08-08T21:50:45.649Z,26.91
2018-08-08T21:53:17.841Z,26.95
2018-08-08T21:56:04.446Z,26.98
2018-08-08T21:58:50.989Z,27.02
2018-08-08T22:01:37.434Z,27.08
2018-08-08T22:04:24.083Z,27.11
2018-08-08T22:07:10.660Z,27.17
2018-08-08T22:11:53.565Z,27.21
2018-08-08T22:14:40.206Z,27.28
2018-08-08T22:17:26.509Z,27.31
2018-08-08T22:19:56.176Z,27.33
2018-08-08T22:22:25.791Z,27.33
2018-08-08T22:24:55.443Z,27.35
2018-08-08T22:27:25.042Z,27.34
2018-08-08T22:29:54.635Z,27.34
2018-08-08T22:32:24.292Z,27.34
2018-08-08T22:34:53.998Z,27.35
2018-08-08T22:37:23.570Z,27.32
2018-08-08T22:39:53.269Z,27.30
2018-08-08T22:42:22.842Z,27.26
2018-08-08T22:44:52.654Z,27.24
2018-08-08T22:47:22.396Z,27.17
2018-08-08T22:49:51.987Z,27.07
2018-08-08T22:52:21.574Z,27.01
2018-08-08T22:54:51.250Z,26.95
2018-08-08T22:57:20.827Z,26.89
2018-08-08T22:59:50.404Z,26.86
2018-08-08T23:02:20.045Z,26.81
2018-08-08T23:04:49.601Z,26.76
2018-08-08T23:07:19.238Z,26.71
2018-08-08T23:09:48.828Z,26.68
2018-08-08T23:12:18.474Z,26.63
2018-08-08T23:14:48.049Z,26.59
2018-08-08T23:17:17.649Z,26.54
2018-08-08T23:19:47.310Z,26.48
2018-08-08T23:22:33.936Z,26.43
2018-08-08T23:25:03.565Z,26.37
2018-08-08T23:27:33.270Z,26.31
2018-08-08T23:30:02.955Z,26.27
2018-08-08T23:32:32.562Z,26.22
2018-08-08T23:35:02.167Z,26.14
2018-08-08T23:37:31.776Z,26.07
2018-08-08T23:40:01.390Z,26.00
2018-08-08T23:42:31.000Z,25.97
2018-08-08T23:45:00.664Z,25.94
2018-08-08T23:47:30.241Z,25.93
2018-08-08T23:49:59.931Z,25.91
2018-08-08T23:52:29.825Z,25.87
2018-08-08T23:54:59.424Z,25.88
2018-08-08T23:57:29.001Z,25.88
2018-08-08T23:59:58.605Z,25.88
